sensor_id;sensor_type;location;lat;lon;timestamp;temperature;humidity
22071;DHT22;11200;51.488;6.668;2022-12-07T00:01:37;5.30;99.90
22071;DHT22;11200;51.488;6.668;2022-12-07T00:04:05;5.00;99.90
22071;DHT22;11200;51.488;6.668;2022-12-07T00:06:32;6.00;99.90
22071;DHT22;11200;51.488;6.668;2022-12-07T00:08:59;5.40;99.90
22071;DHT22;11200;51.488;6.668;2022-12-07T00:11:25;6.90;99.90
22071;DHT22;11200;51.488;6.668;2022-12-07T00:13:58;4.90;99.90
22071;DHT22;11200;51.488;6.668;2022-12-07T00:16:27;5.40;99.90
22071;DHT22;11200;51.488;6.668;2022-12-07T00:18:53;5.20;99.90
22071;DHT22;11200;51.488;6.668;2022-12-07T00:21:23;5.10;99.90
22071;DHT22;11200;51.488;6.668;2022-12-07T00:23:51;6.20;99.90
22071;DHT22;11200;51.488;6.668;2022-12-07T00:26:31;5.20;99.90
22071;DHT22;11200;51.488;6.668;2022-12-07T00:28:59;5.40;99.90
22071;DHT22;11200;51.488;6.668;2022-12-07T00:31:27;5.30;99.90
22071;DHT22;11200;51.488;6.668;2022-12-07T00:33:53;5.40;99.90
22071;DHT22;11200;51.488;6.668;2022-12-07T00:36:21;5.60;99.90
22071;DHT22;11200;51.488;6.668;2022-12-07T00:38:47;5.00;99.90
22071;DHT22;11200;51.488;6.668;2022-12-07T00:41:15;5.10;99.90
22071;DHT22;11200;51.488;6.668;2022-12-07T00:43:42;5.00;99.90
22071;DHT22;11200;51.488;6.668;2022-12-07T00:46:09;4.90;99.90
22071;DHT22;11200;51.488;6.668;2022-12-07T00:48:35;5.00;99.90
22071;DHT22;11200;51.488;6.668;2022-12-07T00:51:01;6.00;99.90
22071;DHT22;11200;51.488;6.668;2022-12-07T00:53:27;6.10;99.90
22071;DHT22;11200;51.488;6.668;2022-12-07T00:55:53;6.70;99.90
22071;DHT22;11200;51.488;6.668;2022-12-07T00:58:21;5.00;99.90
22071;DHT22;11200;51.488;6.668;2022-12-07T01:00:46;5.40;99.90
22071;DHT22;11200;51.488;6.668;2022-12-07T01:03:13;5.20;99.90
22071;DHT22;11200;51.488;6.668;2022-12-07T01:05:39;6.00;99.90
22071;DHT22;11200;51.488;6.668;2022-12-07T01:08:06;6.40;99.90
22071;DHT22;11200;51.488;6.668;2022-12-07T01:10:32;5.10;99.90
22071;DHT22;11200;51.488;6.668;2022-12-07T01:12:58;5.40;99.90
22071;DHT22;11200;51.488;6.668;2022-12-07T01:15:25;6.10;99.90
22071;DHT22;11200;51.488;6.668;2022-12-07T01:17:51;6.20;99.90
22071;DHT22;11200;51.488;6.668;2022-12-07T01:20:17;6.30;99.90
22071;DHT22;11200;51.488;6.668;2022-12-07T01:22:43;5.30;99.90
22071;DHT22;11200;51.488;6.668;2022-12-07T01:25:10;5.20;99.90
22071;DHT22;11200;51.488;6.668;2022-12-07T01:27:36;6.10;99.90
22071;DHT22;11200;51.488;6.668;2022-12-07T01:30:04;5.40;99.90
22071;DHT22;11200;51.488;6.668;2022-12-07T01:32:30;5.40;99.90
22071;DHT22;11200;51.488;6.668;2022-12-07T01:34:56;5.10;99.90
22071;DHT22;11200;51.488;6.668;2022-12-07T01:37:21;5.30;99.90
22071;DHT22;11200;51.488;6.668;2022-12-07T01:39:51;6.40;99.90
22071;DHT22;11200;51.488;6.668;2022-12-07T01:42:17;5.70;99.90
22071;DHT22;11200;51.488;6.668;2022-12-07T01:47:48;5.40;99.90
22071;DHT22;11200;51.488;6.668;2022-12-07T01:50:15;5.70;99.90
22071;DHT22;11200;51.488;6.668;2022-12-07T01:52:42;5.40;99.90
22071;DHT22;11200;51.488;6.668;2022-12-07T01:55:12;5.80;99.90
22071;DHT22;11200;51.488;6.668;2022-12-07T01:57:47;5.10;99.90
22071;DHT22;11200;51.488;6.668;2022-12-07T02:00:13;5.90;99.90
22071;DHT22;11200;51.488;6.668;2022-12-07T02:02:54;5.30;99.90
22071;DHT22;11200;51.488;6.668;2022-12-07T02:05:22;5.30;99.90
22071;DHT22;11200;51.488;6.668;2022-12-07T02:07:49;5.30;99.90
22071;DHT22;11200;51.488;6.668;2022-12-07T02:10:18;4.80;99.90
22071;DHT22;11200;51.488;6.668;2022-12-07T02:12:47;5.30;99.90
22071;DHT22;11200;51.488;6.668;2022-12-07T02:15:14;6.30;99.90
22071;DHT22;11200;51.488;6.668;2022-12-07T02:17:55;4.90;99.90
22071;DHT22;11200;51.488;6.668;2022-12-07T02:20:56;5.20;99.90
22071;DHT22;11200;51.488;6.668;2022-12-07T02:29:25;5.20;99.90
22071;DHT22;11200;51.488;6.668;2022-12-07T02:32:06;5.50;99.90
22071;DHT22;11200;51.488;6.668;2022-12-07T02:40:31;6.30;99.90
22071;DHT22;11200;51.488;6.668;2022-12-07T02:43:47;5.10;99.90
22071;DHT22;11200;51.488;6.668;2022-12-07T02:46:03;5.10;99.90
22071;DHT22;11200;51.488;6.668;2022-12-07T02:48:31;5.10;99.90
22071;DHT22;11200;51.488;6.668;2022-12-07T02:50:58;6.30;99.90
22071;DHT22;11200;51.488;6.668;2022-12-07T02:56:05;5.90;99.90
22071;DHT22;11200;51.488;6.668;2022-12-07T03:01:30;5.00;99.90
22071;DHT22;11200;51.488;6.668;2022-12-07T03:10:49;4.90;99.90
22071;DHT22;11200;51.488;6.668;2022-12-07T03:13:09;5.40;99.90
22071;DHT22;11200;51.488;6.668;2022-12-07T03:15:46;4.90;99.90
22071;DHT22;11200;51.488;6.668;2022-12-07T03:18:14;4.40;99.90
22071;DHT22;11200;51.488;6.668;2022-12-07T03:20:42;4.70;99.90
22071;DHT22;11200;51.488;6.668;2022-12-07T03:23:10;4.40;99.90
22071;DHT22;11200;51.488;6.668;2022-12-07T03:25:49;4.70;99.90
22071;DHT22;11200;51.488;6.668;2022-12-07T03:28:19;5.20;99.90
22071;DHT22;11200;51.488;6.668;2022-12-07T03:30:58;6.40;99.90
22071;DHT22;11200;51.488;6.668;2022-12-07T03:33:31;5.80;99.90
22071;DHT22;11200;51.488;6.668;2022-12-07T03:39:32;4.70;99.90
22071;DHT22;11200;51.488;6.668;2022-12-07T03:42:00;4.20;99.90
22071;DHT22;11200;51.488;6.668;2022-12-07T03:44:27;4.10;99.90
22071;DHT22;11200;51.488;6.668;2022-12-07T03:47:12;4.30;99.90
22071;DHT22;11200;51.488;6.668;2022-12-07T03:55:20;4.50;99.90
22071;DHT22;11200;51.488;6.668;2022-12-07T03:57:49;4.50;99.90
22071;DHT22;11200;51.488;6.668;2022-12-07T04:00:17;5.40;99.90
22071;DHT22;11200;51.488;6.668;2022-12-07T04:02:43;4.40;99.90
22071;DHT22;11200;51.488;6.668;2022-12-07T04:05:10;4.30;99.90
22071;DHT22;11200;51.488;6.668;2022-12-07T04:07:36;4.60;99.90
22071;DHT22;11200;51.488;6.668;2022-12-07T04:10:02;5.00;99.90
22071;DHT22;11200;51.488;6.668;2022-12-07T04:12:28;4.40;99.90
22071;DHT22;11200;51.488;6.668;2022-12-07T04:14:54;4.00;99.90
22071;DHT22;11200;51.488;6.668;2022-12-07T04:17:19;5.80;99.90
22071;DHT22;11200;51.488;6.668;2022-12-07T04:19:45;5.30;99.90
22071;DHT22;11200;51.488;6.668;2022-12-07T04:22:10;3.80;99.90
22071;DHT22;11200;51.488;6.668;2022-12-07T04:24:36;3.90;99.90
22071;DHT22;11200;51.488;6.668;2022-12-07T04:27:03;3.90;99.90
22071;DHT22;11200;51.488;6.668;2022-12-07T04:29:28;5.20;99.90
22071;DHT22;11200;51.488;6.668;2022-12-07T04:31:54;4.10;99.90
22071;DHT22;11200;51.488;6.668;2022-12-07T04:34:19;4.30;99.90
22071;DHT22;11200;51.488;6.668;2022-12-07T04:36:45;4.40;99.90
22071;DHT22;11200;51.488;6.668;2022-12-07T04:39:26;4.20;99.90
22071;DHT22;11200;51.488;6.668;2022-12-07T04:41:53;3.90;99.90
22071;DHT22;11200;51.488;6.668;2022-12-07T04:44:19;5.30;99.90
22071;DHT22;11200;51.488;6.668;2022-12-07T04:46:45;5.10;99.90
22071;DHT22;11200;51.488;6.668;2022-12-07T04:49:11;5.40;99.90
22071;DHT22;11200;51.488;6.668;2022-12-07T04:51:37;5.10;99.90
22071;DHT22;11200;51.488;6.668;2022-12-07T04:54:03;4.80;99.90
22071;DHT22;11200;51.488;6.668;2022-12-07T04:56:29;4.20;99.90
22071;DHT22;11200;51.488;6.668;2022-12-07T04:58:55;4.80;99.90
22071;DHT22;11200;51.488;6.668;2022-12-07T05:01:21;3.80;99.90
22071;DHT22;11200;51.488;6.668;2022-12-07T05:03:47;3.70;99.90
22071;DHT22;11200;51.488;6.668;2022-12-07T05:06:13;4.80;99.90
22071;DHT22;11200;51.488;6.668;2022-12-07T05:08:39;3.70;99.90
22071;DHT22;11200;51.488;6.668;2022-12-07T05:11:06;5.10;99.90
22071;DHT22;11200;51.488;6.668;2022-12-07T05:13:32;3.70;99.90
22071;DHT22;11200;51.488;6.668;2022-12-07T05:15:59;4.80;99.90
22071;DHT22;11200;51.488;6.668;2022-12-07T05:18:25;5.10;99.90
22071;DHT22;11200;51.488;6.668;2022-12-07T05:20:50;5.20;99.90
22071;DHT22;11200;51.488;6.668;2022-12-07T05:23:17;5.50;99.90
22071;DHT22;11200;51.488;6.668;2022-12-07T05:25:43;4.50;99.90
22071;DHT22;11200;51.488;6.668;2022-12-07T05:28:10;5.10;99.90
22071;DHT22;11200;51.488;6.668;2022-12-07T05:30:35;4.10;99.90
22071;DHT22;11200;51.488;6.668;2022-12-07T05:33:01;4.00;99.90
22071;DHT22;11200;51.488;6.668;2022-12-07T05:35:28;3.70;99.90
22071;DHT22;11200;51.488;6.668;2022-12-07T05:37:54;3.50;99.90
22071;DHT22;11200;51.488;6.668;2022-12-07T05:40:20;4.60;99.90
22071;DHT22;11200;51.488;6.668;2022-12-07T05:42:45;5.40;99.90
22071;DHT22;11200;51.488;6.668;2022-12-07T05:45:11;5.50;99.90
22071;DHT22;11200;51.488;6.668;2022-12-07T05:47:37;3.70;99.90
22071;DHT22;11200;51.488;6.668;2022-12-07T05:50:04;3.70;99.90
22071;DHT22;11200;51.488;6.668;2022-12-07T05:52:31;4.20;99.90
22071;DHT22;11200;51.488;6.668;2022-12-07T05:54:56;4.80;99.90
22071;DHT22;11200;51.488;6.668;2022-12-07T05:57:22;4.10;99.90
22071;DHT22;11200;51.488;6.668;2022-12-07T05:59:48;3.90;99.90
22071;DHT22;11200;51.488;6.668;2022-12-07T06:02:15;4.00;99.90
22071;DHT22;11200;51.488;6.668;2022-12-07T06:04:44;4.00;99.90
22071;DHT22;11200;51.488;6.668;2022-12-07T06:07:11;4.20;99.90
22071;DHT22;11200;51.488;6.668;2022-12-07T06:09:40;4.30;99.90
22071;DHT22;11200;51.488;6.668;2022-12-07T06:12:06;4.60;99.90
22071;DHT22;11200;51.488;6.668;2022-12-07T06:14:50;4.20;99.90
22071;DHT22;11200;51.488;6.668;2022-12-07T06:17:16;3.80;99.90
22071;DHT22;11200;51.488;6.668;2022-12-07T06:19:42;4.10;99.90
22071;DHT22;11200;51.488;6.668;2022-12-07T06:22:09;3.60;99.90
22071;DHT22;11200;51.488;6.668;2022-12-07T06:24:35;3.90;99.90
22071;DHT22;11200;51.488;6.668;2022-12-07T06:27:01;4.00;99.90
22071;DHT22;11200;51.488;6.668;2022-12-07T06:29:27;3.70;99.90
22071;DHT22;11200;51.488;6.668;2022-12-07T06:31:52;3.70;99.90
22071;DHT22;11200;51.488;6.668;2022-12-07T06:34:21;3.70;99.90
22071;DHT22;11200;51.488;6.668;2022-12-07T06:36:51;3.70;99.90
22071;DHT22;11200;51.488;6.668;2022-12-07T06:39:19;4.00;99.90
22071;DHT22;11200;51.488;6.668;2022-12-07T06:41:45;3.70;99.90
22071;DHT22;11200;51.488;6.668;2022-12-07T06:44:11;4.00;99.90
22071;DHT22;11200;51.488;6.668;2022-12-07T06:46:37;4.50;99.90
22071;DHT22;11200;51.488;6.668;2022-12-07T06:49:03;4.00;99.90
22071;DHT22;11200;51.488;6.668;2022-12-07T06:51:29;5.10;99.90
22071;DHT22;11200;51.488;6.668;2022-12-07T06:53:55;4.50;99.90
22071;DHT22;11200;51.488;6.668;2022-12-07T06:56:21;4.40;99.90
22071;DHT22;11200;51.488;6.668;2022-12-07T06:58:50;3.70;99.90
22071;DHT22;11200;51.488;6.668;2022-12-07T07:01:19;5.20;99.90
22071;DHT22;11200;51.488;6.668;2022-12-07T07:03:45;4.00;99.90
22071;DHT22;11200;51.488;6.668;2022-12-07T07:06:14;4.00;99.90
22071;DHT22;11200;51.488;6.668;2022-12-07T07:08:40;5.40;99.90
22071;DHT22;11200;51.488;6.668;2022-12-07T07:11:09;3.60;99.90
22071;DHT22;11200;51.488;6.668;2022-12-07T07:13:37;4.90;99.90
22071;DHT22;11200;51.488;6.668;2022-12-07T07:16:07;3.60;99.90
22071;DHT22;11200;51.488;6.668;2022-12-07T07:18:32;4.00;99.90
22071;DHT22;11200;51.488;6.668;2022-12-07T07:21:01;3.60;99.90
22071;DHT22;11200;51.488;6.668;2022-12-07T07:23:29;3.70;99.90
22071;DHT22;11200;51.488;6.668;2022-12-07T07:25:55;3.90;99.90
22071;DHT22;11200;51.488;6.668;2022-12-07T07:28:23;4.10;99.90
22071;DHT22;11200;51.488;6.668;2022-12-07T07:30:52;3.50;99.90
22071;DHT22;11200;51.488;6.668;2022-12-07T07:33:20;5.20;99.90
22071;DHT22;11200;51.488;6.668;2022-12-07T07:35:48;4.00;99.90
22071;DHT22;11200;51.488;6.668;2022-12-07T07:38:17;3.60;99.90
22071;DHT22;11200;51.488;6.668;2022-12-07T07:40:42;3.40;99.90
22071;DHT22;11200;51.488;6.668;2022-12-07T07:43:11;4.70;99.90
22071;DHT22;11200;51.488;6.668;2022-12-07T07:45:39;5.80;99.90
22071;DHT22;11200;51.488;6.668;2022-12-07T07:48:05;4.80;99.90
22071;DHT22;11200;51.488;6.668;2022-12-07T07:50:36;3.80;99.90
22071;DHT22;11200;51.488;6.668;2022-12-07T07:53:03;4.20;99.90
22071;DHT22;11200;51.488;6.668;2022-12-07T07:55:29;4.90;99.90
22071;DHT22;11200;51.488;6.668;2022-12-07T07:57:55;3.80;99.90
22071;DHT22;11200;51.488;6.668;2022-12-07T08:00:30;4.40;99.90
22071;DHT22;11200;51.488;6.668;2022-12-07T08:02:55;4.40;99.90
22071;DHT22;11200;51.488;6.668;2022-12-07T08:05:23;4.60;99.90
22071;DHT22;11200;51.488;6.668;2022-12-07T08:07:49;4.10;99.90
22071;DHT22;11200;51.488;6.668;2022-12-07T08:10:15;4.80;99.90
22071;DHT22;11200;51.488;6.668;2022-12-07T08:12:42;5.10;99.90
22071;DHT22;11200;51.488;6.668;2022-12-07T08:15:29;3.70;99.90
22071;DHT22;11200;51.488;6.668;2022-12-07T08:17:55;4.40;99.90
22071;DHT22;11200;51.488;6.668;2022-12-07T08:20:23;3.70;99.90
22071;DHT22;11200;51.488;6.668;2022-12-07T08:22:52;4.70;99.90
22071;DHT22;11200;51.488;6.668;2022-12-07T08:25:18;4.40;99.90
22071;DHT22;11200;51.488;6.668;2022-12-07T08:27:43;3.70;99.90
22071;DHT22;11200;51.488;6.668;2022-12-07T08:30:11;3.30;99.90
22071;DHT22;11200;51.488;6.668;2022-12-07T08:32:39;3.70;99.90
22071;DHT22;11200;51.488;6.668;2022-12-07T08:35:05;3.30;99.90
22071;DHT22;11200;51.488;6.668;2022-12-07T08:37:34;3.70;99.90
22071;DHT22;11200;51.488;6.668;2022-12-07T08:39:59;3.60;99.90
22071;DHT22;11200;51.488;6.668;2022-12-07T08:42:33;3.20;99.90
22071;DHT22;11200;51.488;6.668;2022-12-07T08:45:07;5.10;99.90
22071;DHT22;11200;51.488;6.668;2022-12-07T08:47:37;3.70;99.90
22071;DHT22;11200;51.488;6.668;2022-12-07T08:50:06;3.70;99.90
22071;DHT22;11200;51.488;6.668;2022-12-07T08:52:32;3.80;99.90
22071;DHT22;11200;51.488;6.668;2022-12-07T08:55:00;3.70;99.90
22071;DHT22;11200;51.488;6.668;2022-12-07T08:57:27;5.40;99.90
22071;DHT22;11200;51.488;6.668;2022-12-07T08:59:53;4.20;99.90
22071;DHT22;11200;51.488;6.668;2022-12-07T09:02:19;4.20;99.90
22071;DHT22;11200;51.488;6.668;2022-12-07T09:04:45;3.40;99.90
22071;DHT22;11200;51.488;6.668;2022-12-07T09:07:10;3.60;99.90
22071;DHT22;11200;51.488;6.668;2022-12-07T09:09:39;4.40;99.90
22071;DHT22;11200;51.488;6.668;2022-12-07T09:12:05;3.40;99.90
22071;DHT22;11200;51.488;6.668;2022-12-07T09:14:30;4.00;99.90
22071;DHT22;11200;51.488;6.668;2022-12-07T09:17:12;3.50;99.90
22071;DHT22;11200;51.488;6.668;2022-12-07T09:19:38;3.60;99.90
22071;DHT22;11200;51.488;6.668;2022-12-07T09:22:04;4.80;99.90
22071;DHT22;11200;51.488;6.668;2022-12-07T09:24:31;5.20;99.90
22071;DHT22;11200;51.488;6.668;2022-12-07T09:26:57;5.20;99.90
22071;DHT22;11200;51.488;6.668;2022-12-07T09:29:23;5.30;99.90
22071;DHT22;11200;51.488;6.668;2022-12-07T09:31:49;4.20;99.90
22071;DHT22;11200;51.488;6.668;2022-12-07T09:34:17;5.40;99.90
22071;DHT22;11200;51.488;6.668;2022-12-07T09:36:42;4.50;99.90
22071;DHT22;11200;51.488;6.668;2022-12-07T09:39:08;5.60;99.90
22071;DHT22;11200;51.488;6.668;2022-12-07T09:41:38;4.80;99.90
22071;DHT22;11200;51.488;6.668;2022-12-07T09:44:07;6.10;99.90
22071;DHT22;11200;51.488;6.668;2022-12-07T09:46:36;5.00;99.90
22071;DHT22;11200;51.488;6.668;2022-12-07T09:49:04;7.50;99.90
22071;DHT22;11200;51.488;6.668;2022-12-07T09:51:31;6.30;99.90
22071;DHT22;11200;51.488;6.668;2022-12-07T09:53:58;7.70;99.90
22071;DHT22;11200;51.488;6.668;2022-12-07T09:56:23;8.10;99.90
22071;DHT22;11200;51.488;6.668;2022-12-07T09:58:51;7.90;99.90
22071;DHT22;11200;51.488;6.668;2022-12-07T10:01:21;7.70;99.90
22071;DHT22;11200;51.488;6.668;2022-12-07T10:03:55;8.80;99.90
22071;DHT22;11200;51.488;6.668;2022-12-07T10:06:23;9.00;99.90
22071;DHT22;11200;51.488;6.668;2022-12-07T10:08:48;9.40;99.90
22071;DHT22;11200;51.488;6.668;2022-12-07T10:11:14;9.20;99.90
22071;DHT22;11200;51.488;6.668;2022-12-07T10:13:47;9.80;99.90
22071;DHT22;11200;51.488;6.668;2022-12-07T10:16:39;10.20;99.90
22071;DHT22;11200;51.488;6.668;2022-12-07T10:19:29;10.50;99.90
22071;DHT22;11200;51.488;6.668;2022-12-07T10:24:37;10.80;99.90
22071;DHT22;11200;51.488;6.668;2022-12-07T10:27:05;11.00;99.90
22071;DHT22;11200;51.488;6.668;2022-12-07T10:29:50;10.90;99.90
22071;DHT22;11200;51.488;6.668;2022-12-07T10:34:44;11.60;99.90
22071;DHT22;11200;51.488;6.668;2022-12-07T10:39:49;10.40;99.90
22071;DHT22;11200;51.488;6.668;2022-12-07T10:42:23;10.20;99.90
22071;DHT22;11200;51.488;6.668;2022-12-07T10:45:06;10.00;99.90
22071;DHT22;11200;51.488;6.668;2022-12-07T10:47:48;10.00;99.90
22071;DHT22;11200;51.488;6.668;2022-12-07T10:53:13;9.60;99.90
22071;DHT22;11200;51.488;6.668;2022-12-07T11:06:37;9.00;99.90
22071;DHT22;11200;51.488;6.668;2022-12-07T11:09:34;9.10;99.90
22071;DHT22;11200;51.488;6.668;2022-12-07T11:15:09;8.70;99.90
22071;DHT22;11200;51.488;6.668;2022-12-07T11:17:52;8.60;99.90
22071;DHT22;11200;51.488;6.668;2022-12-07T11:25:49;8.50;99.90
22071;DHT22;11200;51.488;6.668;2022-12-07T11:34:24;8.40;99.90
22071;DHT22;11200;51.488;6.668;2022-12-07T11:36:54;8.40;99.90
22071;DHT22;11200;51.488;6.668;2022-12-07T11:39:35;7.90;99.90
22071;DHT22;11200;51.488;6.668;2022-12-07T11:42:19;8.20;99.90
22071;DHT22;11200;51.488;6.668;2022-12-07T11:45:14;7.90;99.90
22071;DHT22;11200;51.488;6.668;2022-12-07T11:47:54;8.40;99.90
22071;DHT22;11200;51.488;6.668;2022-12-07T11:50:30;8.40;99.90
22071;DHT22;11200;51.488;6.668;2022-12-07T11:53:18;8.40;99.90
22071;DHT22;11200;51.488;6.668;2022-12-07T11:56:02;8.40;99.90
22071;DHT22;11200;51.488;6.668;2022-12-07T12:06:43;8.30;99.90
22071;DHT22;11200;51.488;6.668;2022-12-07T12:19:58;8.20;99.90
22071;DHT22;11200;51.488;6.668;2022-12-07T12:22:37;8.20;99.90
22071;DHT22;11200;51.488;6.668;2022-12-07T12:25:07;9.30;99.90
22071;DHT22;11200;51.488;6.668;2022-12-07T12:27:37;8.10;99.90
22071;DHT22;11200;51.488;6.668;2022-12-07T12:30:06;8.60;99.90
22071;DHT22;11200;51.488;6.668;2022-12-07T12:33:03;8.10;99.90
22071;DHT22;11200;51.488;6.668;2022-12-07T12:35:35;8.00;99.90
22071;DHT22;11200;51.488;6.668;2022-12-07T12:40:58;8.30;99.90
22071;DHT22;11200;51.488;6.668;2022-12-07T12:51:50;7.90;99.90
22071;DHT22;11200;51.488;6.668;2022-12-07T12:59:32;8.70;99.90
22071;DHT22;11200;51.488;6.668;2022-12-07T13:36:51;7.70;99.90
22071;DHT22;11200;51.488;6.668;2022-12-07T13:39:22;7.90;99.90
22071;DHT22;11200;51.488;6.668;2022-12-07T13:41:56;7.60;99.90
22071;DHT22;11200;51.488;6.668;2022-12-07T13:44:24;7.60;99.90
22071;DHT22;11200;51.488;6.668;2022-12-07T13:46:55;7.10;99.90
22071;DHT22;11200;51.488;6.668;2022-12-07T13:49:26;7.60;99.90
22071;DHT22;11200;51.488;6.668;2022-12-07T13:51:54;7.60;99.90
22071;DHT22;11200;51.488;6.668;2022-12-07T13:54:22;7.10;99.90
22071;DHT22;11200;51.488;6.668;2022-12-07T13:56:50;8.40;99.90
22071;DHT22;11200;51.488;6.668;2022-12-07T13:59:24;7.80;99.90
22071;DHT22;11200;51.488;6.668;2022-12-07T14:01:52;7.80;99.90
22071;DHT22;11200;51.488;6.668;2022-12-07T14:04:39;8.10;99.90
22071;DHT22;11200;51.488;6.668;2022-12-07T14:07:24;8.00;99.90
22071;DHT22;11200;51.488;6.668;2022-12-07T14:10:04;8.10;99.90
22071;DHT22;11200;51.488;6.668;2022-12-07T14:12:31;7.50;99.90
22071;DHT22;11200;51.488;6.668;2022-12-07T14:14:59;7.50;99.90
22071;DHT22;11200;51.488;6.668;2022-12-07T14:17:26;7.00;99.90
22071;DHT22;11200;51.488;6.668;2022-12-07T14:19:53;7.80;99.90
22071;DHT22;11200;51.488;6.668;2022-12-07T14:27:38;7.40;99.90
22071;DHT22;11200;51.488;6.668;2022-12-07T14:30:05;7.40;99.90
22071;DHT22;11200;51.488;6.668;2022-12-07T14:32:31;7.30;99.90
22071;DHT22;11200;51.488;6.668;2022-12-07T14:35:17;7.80;99.90
22071;DHT22;11200;51.488;6.668;2022-12-07T14:37:45;7.30;99.90
22071;DHT22;11200;51.488;6.668;2022-12-07T14:40:20;7.20;99.90
22071;DHT22;11200;51.488;6.668;2022-12-07T14:42:48;7.90;99.90
22071;DHT22;11200;51.488;6.668;2022-12-07T14:45:18;7.20;99.90
22071;DHT22;11200;51.488;6.668;2022-12-07T14:47:45;7.10;99.90
22071;DHT22;11200;51.488;6.668;2022-12-07T14:50:16;7.10;99.90
22071;DHT22;11200;51.488;6.668;2022-12-07T14:53:30;7.00;99.90
22071;DHT22;11200;51.488;6.668;2022-12-07T14:55:31;7.20;99.90
22071;DHT22;11200;51.488;6.668;2022-12-07T14:57:57;7.00;99.90
22071;DHT22;11200;51.488;6.668;2022-12-07T15:00:24;7.10;99.90
22071;DHT22;11200;51.488;6.668;2022-12-07T15:02:51;6.90;99.90
22071;DHT22;11200;51.488;6.668;2022-12-07T15:05:17;7.50;99.90
22071;DHT22;11200;51.488;6.668;2022-12-07T15:07:45;6.80;99.90
22071;DHT22;11200;51.488;6.668;2022-12-07T15:10:23;7.50;99.90
22071;DHT22;11200;51.488;6.668;2022-12-07T15:12:49;7.20;99.90
22071;DHT22;11200;51.488;6.668;2022-12-07T15:15:15;6.30;99.90
22071;DHT22;11200;51.488;6.668;2022-12-07T15:17:41;6.60;99.90
22071;DHT22;11200;51.488;6.668;2022-12-07T15:20:14;7.50;99.90
22071;DHT22;11200;51.488;6.668;2022-12-07T15:22:42;6.60;99.90
22071;DHT22;11200;51.488;6.668;2022-12-07T15:25:09;7.00;99.90
22071;DHT22;11200;51.488;6.668;2022-12-07T15:27:37;6.90;99.90
22071;DHT22;11200;51.488;6.668;2022-12-07T15:30:03;6.80;99.90
22071;DHT22;11200;51.488;6.668;2022-12-07T15:32:29;6.40;99.90
22071;DHT22;11200;51.488;6.668;2022-12-07T15:34:55;6.10;99.90
22071;DHT22;11200;51.488;6.668;2022-12-07T15:37:20;6.30;99.90
22071;DHT22;11200;51.488;6.668;2022-12-07T15:39:46;6.30;99.90
22071;DHT22;11200;51.488;6.668;2022-12-07T15:42:11;6.00;99.90
22071;DHT22;11200;51.488;6.668;2022-12-07T15:44:37;6.20;99.90
22071;DHT22;11200;51.488;6.668;2022-12-07T15:47:21;6.10;99.90
22071;DHT22;11200;51.488;6.668;2022-12-07T15:49:47;6.50;99.90
22071;DHT22;11200;51.488;6.668;2022-12-07T15:52:12;5.70;99.90
22071;DHT22;11200;51.488;6.668;2022-12-07T15:54:38;5.50;99.90
22071;DHT22;11200;51.488;6.668;2022-12-07T15:57:03;6.60;99.90
22071;DHT22;11200;51.488;6.668;2022-12-07T15:59:29;6.40;99.90
22071;DHT22;11200;51.488;6.668;2022-12-07T16:01:55;5.50;99.90
22071;DHT22;11200;51.488;6.668;2022-12-07T16:04:21;6.00;99.90
22071;DHT22;11200;51.488;6.668;2022-12-07T16:06:47;8.10;99.90
22071;DHT22;11200;51.488;6.668;2022-12-07T16:09:12;5.40;99.90
22071;DHT22;11200;51.488;6.668;2022-12-07T16:11:38;5.80;99.90
22071;DHT22;11200;51.488;6.668;2022-12-07T16:14:04;6.50;99.90
22071;DHT22;11200;51.488;6.668;2022-12-07T16:16:29;5.70;99.90
22071;DHT22;11200;51.488;6.668;2022-12-07T16:18:56;7.20;99.90
22071;DHT22;11200;51.488;6.668;2022-12-07T16:21:22;6.20;99.90
22071;DHT22;11200;51.488;6.668;2022-12-07T16:23:47;5.50;99.90
22071;DHT22;11200;51.488;6.668;2022-12-07T16:26:16;5.50;99.90
22071;DHT22;11200;51.488;6.668;2022-12-07T16:28:42;5.20;99.90
22071;DHT22;11200;51.488;6.668;2022-12-07T16:31:10;5.60;99.90
22071;DHT22;11200;51.488;6.668;2022-12-07T16:33:36;5.20;99.90
22071;DHT22;11200;51.488;6.668;2022-12-07T16:36:04;6.70;99.90
22071;DHT22;11200;51.488;6.668;2022-12-07T16:38:30;5.60;99.90
22071;DHT22;11200;51.488;6.668;2022-12-07T16:40:56;6.80;99.90
22071;DHT22;11200;51.488;6.668;2022-12-07T16:43:22;5.50;99.90
22071;DHT22;11200;51.488;6.668;2022-12-07T16:45:48;6.30;99.90
22071;DHT22;11200;51.488;6.668;2022-12-07T16:48:14;6.30;99.90
22071;DHT22;11200;51.488;6.668;2022-12-07T16:50:41;6.70;99.90
22071;DHT22;11200;51.488;6.668;2022-12-07T16:53:08;6.40;99.90
22071;DHT22;11200;51.488;6.668;2022-12-07T16:55:43;5.00;99.90
22071;DHT22;11200;51.488;6.668;2022-12-07T16:58:09;5.90;99.90
22071;DHT22;11200;51.488;6.668;2022-12-07T17:00:36;5.20;99.90
22071;DHT22;11200;51.488;6.668;2022-12-07T17:03:02;5.40;99.90
22071;DHT22;11200;51.488;6.668;2022-12-07T17:05:28;5.60;99.90
22071;DHT22;11200;51.488;6.668;2022-12-07T17:07:55;6.30;99.90
22071;DHT22;11200;51.488;6.668;2022-12-07T17:10:21;6.90;99.90
22071;DHT22;11200;51.488;6.668;2022-12-07T17:12:48;6.10;99.90
22071;DHT22;11200;51.488;6.668;2022-12-07T17:15:14;6.20;99.90
22071;DHT22;11200;51.488;6.668;2022-12-07T17:17:46;5.70;99.90
22071;DHT22;11200;51.488;6.668;2022-12-07T17:20:16;6.20;99.90
22071;DHT22;11200;51.488;6.668;2022-12-07T17:22:42;4.90;99.90
22071;DHT22;11200;51.488;6.668;2022-12-07T17:25:09;5.30;99.90
22071;DHT22;11200;51.488;6.668;2022-12-07T17:27:35;4.90;99.90
22071;DHT22;11200;51.488;6.668;2022-12-07T17:30:03;6.50;99.90
22071;DHT22;11200;51.488;6.668;2022-12-07T17:32:29;6.60;99.90
22071;DHT22;11200;51.488;6.668;2022-12-07T17:34:55;5.20;99.90
22071;DHT22;11200;51.488;6.668;2022-12-07T17:37:20;6.30;99.90
22071;DHT22;11200;51.488;6.668;2022-12-07T17:39:46;6.40;99.90
22071;DHT22;11200;51.488;6.668;2022-12-07T17:42:11;4.90;99.90
22071;DHT22;11200;51.488;6.668;2022-12-07T17:44:56;5.10;99.90
22071;DHT22;11200;51.488;6.668;2022-12-07T17:47:21;7.00;99.90
22071;DHT22;11200;51.488;6.668;2022-12-07T17:49:47;4.80;99.90
22071;DHT22;11200;51.488;6.668;2022-12-07T17:52:29;5.40;99.90
22071;DHT22;11200;51.488;6.668;2022-12-07T17:55:13;5.30;99.90
22071;DHT22;11200;51.488;6.668;2022-12-07T17:57:39;6.90;99.90
22071;DHT22;11200;51.488;6.668;2022-12-07T18:00:06;5.90;99.90
22071;DHT22;11200;51.488;6.668;2022-12-07T18:02:31;5.20;99.90
22071;DHT22;11200;51.488;6.668;2022-12-07T18:05:03;4.80;99.90
22071;DHT22;11200;51.488;6.668;2022-12-07T18:07:29;5.20;99.90
22071;DHT22;11200;51.488;6.668;2022-12-07T18:13:19;5.20;99.90
22071;DHT22;11200;51.488;6.668;2022-12-07T18:16:01;5.40;99.90
22071;DHT22;11200;51.488;6.668;2022-12-07T18:18:27;5.20;99.90
22071;DHT22;11200;51.488;6.668;2022-12-07T18:20:53;5.30;99.90
22071;DHT22;11200;51.488;6.668;2022-12-07T18:23:18;6.70;99.90
22071;DHT22;11200;51.488;6.668;2022-12-07T18:25:49;6.10;99.90
22071;DHT22;11200;51.488;6.668;2022-12-07T18:28:15;6.30;99.90